Time;durP1;ratioP1;P1;durP2;ratioP2;P2;SDS_P1;SDS_P2;PMS_P1;PMS_P2;Temp;Humidity;BMP_temperature;BMP_pressure;BME280_temperature;BME280_humidity;BME280_pressure;Samples;Min_cycle;Max_cycle;Signal;HPM_P1;HPM_P2
2021/05/21 00:02:08;;;;;;;11.00;9.40;;;281.70;2278.40;;;;;;4995287;28;20079;-74
2021/05/21 00:04:34;;;;;;;12.75;9.40;;;281.70;2278.40;;;;;;5005074;28;20022;-74
2021/05/21 00:06:59;;;;;;;12.43;9.40;;;281.70;2278.40;;;;;;4994187;28;20507;-75
2021/05/21 00:09:25;;;;;;;14.52;9.68;;;281.70;2278.40;;;;;;4994496;28;20109;-74
2021/05/21 00:11:51;;;;;;;12.65;9.75;;;281.70;2278.40;;;;;;5001271;28;20109;-74
2021/05/21 00:14:18;;;;;;;11.25;9.90;;;281.70;2278.40;;;;;;5000483;28;20042;-75
2021/05/21 00:16:44;;;;;;;12.35;9.45;;;281.70;2278.40;;;;;;4993900;28;20065;-74
2021/05/21 00:19:10;;;;;;;10.93;9.77;;;281.70;2278.40;;;;;;5004222;28;20100;-74
2021/05/21 00:21:35;;;;;;;11.10;9.27;;;281.70;2278.40;;;;;;4998465;28;20202;-74
2021/05/21 00:24:01;;;;;;;9.88;8.88;;;281.70;2278.40;;;;;;4997336;28;20042;-74
2021/05/21 00:26:27;;;;;;;11.48;9.32;;;281.70;2278.40;;;;;;5002770;28;20042;-74
2021/05/21 00:28:53;;;;;;;11.25;10.02;;;281.70;2278.40;;;;;;5006992;28;20472;-75
2021/05/21 00:31:19;;;;;;;10.57;9.45;;;281.70;2278.40;;;;;;5010691;28;20037;-74
2021/05/21 00:33:44;;;;;;;12.93;9.85;;;281.70;2278.40;;;;;;5001188;28;20036;-75
2021/05/21 00:36:10;;;;;;;16.42;10.05;;;281.60;2278.40;;;;;;5005107;28;20022;-75
2021/05/21 00:38:36;;;;;;;10.63;9.57;;;281.60;2278.40;;;;;;4997753;28;20041;-75
2021/05/21 00:41:03;;;;;;;11.43;9.85;;;281.60;2278.40;;;;;;4976913;28;20689;-74
2021/05/21 00:43:29;;;;;;;12.75;9.80;;;281.60;2278.40;;;;;;5000514;28;20037;-75
2021/05/21 00:45:55;;;;;;;11.80;10.15;;;281.60;2278.40;;;;;;4995268;28;20210;-75
2021/05/21 00:48:21;;;;;;;12.18;10.50;;;281.60;2278.40;;;;;;4999413;28;20048;-75
2021/05/21 00:50:49;;;;;;;14.02;9.93;;;281.60;2278.40;;;;;;4996022;28;20026;-74
2021/05/21 00:53:16;;;;;;;11.40;10.20;;;281.60;2278.40;;;;;;4998374;28;20129;-75
2021/05/21 00:55:42;;;;;;;13.48;10.32;;;281.60;2278.40;;;;;;5009898;28;20068;-75
2021/05/21 00:58:08;;;;;;;10.40;9.38;;;281.60;2278.40;;;;;;5004319;28;20030;-74
2021/05/21 01:00:34;;;;;;;12.77;9.55;;;256.90;2252.80;;;;;;4999297;28;20026;-75
2021/05/21 01:03:00;;;;;;;12.50;9.57;;;281.60;2278.40;;;;;;4994491;28;20029;-75
2021/05/21 01:05:26;;;;;;;11.93;9.60;;;256.90;2252.80;;;;;;5010510;28;20475;-75
2021/05/21 01:07:52;;;;;;;12.15;9.93;;;256.90;2252.80;;;;;;4995626;28;20088;-75
2021/05/21 01:10:17;;;;;;;13.48;10.05;;;256.90;2252.80;;;;;;4996855;28;20026;-75
2021/05/21 01:12:44;;;;;;;11.52;9.45;;;256.80;2252.80;;;;;;5008421;28;20059;-75
2021/05/21 01:15:11;;;;;;;10.95;9.57;;;256.80;2252.80;;;;;;5006327;28;20117;-75
2021/05/21 01:17:37;;;;;;;11.52;9.52;;;256.80;2252.80;;;;;;5009720;28;20056;-75
2021/05/21 01:20:07;;;;;;;10.55;8.85;;;256.80;2252.80;;;;;;5003628;28;20046;-74
2021/05/21 01:22:33;;;;;;;10.30;8.77;;;256.80;2252.80;;;;;;5005275;28;20034;-75
2021/05/21 01:24:58;;;;;;;12.90;9.10;;;256.80;2252.80;;;;;;4993903;28;20085;-75
2021/05/21 01:27:25;;;;;;;11.15;9.15;;;256.70;2252.80;;;;;;5006043;28;20157;-74
2021/05/21 01:29:51;;;;;;;10.55;9.00;;;256.80;2252.80;;;;;;5001387;28;20468;-75
2021/05/21 01:32:16;;;;;;;11.02;8.30;;;256.80;2252.80;;;;;;4998632;28;20077;-75
2021/05/21 01:34:42;;;;;;;10.50;8.73;;;256.80;2252.80;;;;;;5004215;28;20064;-75
2021/05/21 01:37:19;;;;;;;12.57;8.57;;;256.80;2252.80;;;;;;5013674;28;20033;-75
2021/05/21 01:39:48;;;;;;;9.98;8.02;;;256.80;2252.80;;;;;;4999752;28;20018;-75
2021/05/21 01:42:15;;;;;;;11.93;8.73;;;256.70;2252.80;;;;;;4998429;28;20026;-75
2021/05/21 01:44:42;;;;;;;10.63;7.88;;;256.70;2252.80;;;;;;5002975;28;20096;-74
2021/05/21 01:47:10;;;;;;;9.93;8.05;;;256.70;2252.80;;;;;;4997683;28;20436;-75
2021/05/21 01:49:36;;;;;;;10.35;8.02;;;256.70;2252.80;;;;;;5006194;28;20030;-74
2021/05/21 01:52:02;;;;;;;10.07;7.70;;;256.70;2252.80;;;;;;4994603;28;20021;-75
2021/05/21 01:54:29;;;;;;;8.63;7.43;;;256.70;2252.80;;;;;;5002151;28;20492;-75
2021/05/21 01:57:00;;;;;;;10.32;7.35;;;256.70;2252.80;;;;;;4995787;28;20360;-75
2021/05/21 01:59:26;;;;;;;8.20;7.07;;;256.70;2252.80;;;;;;5013345;28;20025;-75
2021/05/21 02:01:53;;;;;;;7.93;7.13;;;256.70;2252.80;;;;;;5008558;28;20023;-74
2021/05/21 02:04:30;;;;;;;9.93;6.80;;;256.60;2252.80;;;;;;4991197;28;20546;-75
2021/05/21 02:06:56;;;;;;;8.23;6.80;;;256.70;2252.80;;;;;;4999262;28;20054;-75
2021/05/21 02:09:22;;;;;;;11.13;6.90;;;256.60;2252.80;;;;;;4994269;28;20018;-74
2021/05/21 02:11:48;;;;;;;8.82;6.63;;;256.60;2252.80;;;;;;5005470;28;20029;-74
2021/05/21 02:14:13;;;;;;;8.00;6.57;;;256.60;2252.80;;;;;;4998693;28;20022;-75
2021/05/21 02:16:39;;;;;;;8.00;6.93;;;256.60;2252.80;;;;;;5004976;28;20468;-74
2021/05/21 02:19:05;;;;;;;10.05;6.40;;;256.60;2252.80;;;;;;4997640;28;20030;-74
2021/05/21 02:21:33;;;;;;;8.88;7.00;;;256.70;2252.80;;;;;;5011268;28;20025;-74
2021/05/21 02:24:01;;;;;;;7.50;6.13;;;256.70;2252.80;;;;;;4988130;28;20109;-75
2021/05/21 02:26:27;;;;;;;7.93;6.18;;;256.70;2252.80;;;;;;5000271;28;20038;-75
2021/05/21 02:28:52;;;;;;;10.68;6.90;;;256.70;2252.80;;;;;;5006136;28;20030;-74
2021/05/21 02:31:19;;;;;;;9.13;6.50;;;256.80;2252.80;;;;;;5000241;28;20030;-74
2021/05/21 02:33:45;;;;;;;9.52;6.80;;;256.80;2252.80;;;;;;4993952;28;20065;-74
2021/05/21 02:36:11;;;;;;;9.90;6.50;;;256.80;2252.80;;;;;;4996893;28;20466;-74
2021/05/21 02:38:37;;;;;;;11.43;6.43;;;256.70;2252.80;;;;;;5008706;28;20499;-75
2021/05/21 02:41:02;;;;;;;9.90;6.53;;;256.70;2252.80;;;;;;5007970;28;20030;-74
2021/05/21 02:43:28;;;;;;;8.38;6.63;;;256.70;2252.80;;;;;;4999207;28;20038;-75
2021/05/21 02:45:54;;;;;;;7.38;6.53;;;256.70;2252.80;;;;;;4987012;28;20543;-74
2021/05/21 02:48:19;;;;;;;7.72;6.88;;;256.70;2252.80;;;;;;4989626;28;20041;-74
2021/05/21 02:50:45;;;;;;;11.63;6.97;;;256.70;2252.80;;;;;;4988402;28;20026;-74
2021/05/21 02:53:11;;;;;;;8.27;6.57;;;256.70;2252.80;;;;;;4995287;28;20105;-74
2021/05/21 02:55:36;;;;;;;11.32;6.55;;;256.70;2252.80;;;;;;4994383;28;20480;-74
2021/05/21 02:58:03;;;;;;;11.77;6.78;;;256.70;2252.80;;;;;;5003846;28;20504;-75
2021/05/21 03:00:29;;;;;;;9.20;7.72;;;256.70;2252.80;;;;;;4997438;28;20034;-75
2021/05/21 03:02:55;;;;;;;8.85;7.10;;;256.60;2252.80;;;;;;5000785;28;20049;-75
2021/05/21 03:05:25;;;;;;;8.05;6.88;;;256.60;2252.80;;;;;;4994069;28;20032;-74
2021/05/21 03:07:54;;;;;;;9.07;7.20;;;256.60;2252.80;;;;;;4999781;28;20144;-74
2021/05/21 03:10:26;;;;;;;12.60;7.07;;;256.60;2252.80;;;;;;4993270;28;20034;-74
2021/05/21 03:12:52;;;;;;;7.88;6.97;;;256.50;2252.80;;;;;;4999124;28;20101;-74
2021/05/21 03:15:18;;;;;;;10.95;8.20;;;256.50;2252.80;;;;;;5001679;28;20109;-75
2021/05/21 03:17:44;;;;;;;9.60;7.75;;;256.50;2252.80;;;;;;4997310;28;20018;-75
2021/05/21 03:20:11;;;;;;;10.07;7.35;;;256.50;2252.80;;;;;;5006930;28;20037;-74
2021/05/21 03:22:36;;;;;;;10.52;8.13;;;256.50;2252.80;;;;;;4992565;28;20081;-75
2021/05/21 03:25:03;;;;;;;8.80;7.60;;;;;;;;;;4992809;28;20042;-74
2021/05/21 03:27:31;;;;;;;9.70;7.43;;;256.50;2252.80;;;;;;5003029;28;20061;-75
2021/05/21 03:29:57;;;;;;;8.68;7.53;;;256.40;2252.80;;;;;;5012254;28;20376;-75
2021/05/21 03:32:23;;;;;;;11.32;8.02;;;256.40;2252.80;;;;;;4997042;28;20081;-74
2021/05/21 03:34:49;;;;;;;13.45;8.43;;;256.50;2252.80;;;;;;4995708;28;20101;-75
2021/05/21 03:37:15;;;;;;;12.80;9.20;;;256.90;2252.80;;;;;;4992818;28;20170;-74
2021/05/21 03:39:41;;;;;;;10.90;8.45;;;;;;;;;;4995799;28;20109;-75
2021/05/21 03:42:07;;;;;;;9.15;7.93;;;256.50;2252.80;;;;;;5011711;28;20379;-75
2021/05/21 03:44:33;;;;;;;11.32;8.02;;;256.40;2252.80;;;;;;4995664;28;20037;-75
2021/05/21 03:47:02;;;;;;;17.00;8.93;;;256.40;2252.80;;;;;;4999522;28;20043;-74
2021/05/21 03:49:28;;;;;;;13.20;8.90;;;256.30;2252.80;;;;;;4990527;28;20403;-75
2021/05/21 03:51:54;;;;;;;11.10;9.23;;;256.40;2252.80;;;;;;4995224;28;20026;-75
2021/05/21 03:54:21;;;;;;;11.02;9.43;;;256.40;2252.80;;;;;;4990455;28;20026;-74
2021/05/21 03:56:46;;;;;;;9.73;8.27;;;256.40;2252.80;;;;;;5002627;28;20105;-74
2021/05/21 03:59:12;;;;;;;9.35;8.13;;;256.50;2252.80;;;;;;5008399;28;20073;-75
2021/05/21 04:01:38;;;;;;;10.80;7.63;;;256.50;2252.80;;;;;;4996014;28;20483;-75
2021/05/21 04:04:05;;;;;;;9.63;8.13;;;256.50;2252.80;;;;;;5004798;28;20026;-74
2021/05/21 04:06:31;;;;;;;12.90;8.82;;;256.50;2252.80;;;;;;4995596;28;20038;-73
2021/05/21 04:08:57;;;;;;;10.40;8.05;;;256.60;2252.80;;;;;;5006898;28;20025;-73
2021/05/21 04:11:23;;;;;;;12.38;8.07;;;256.60;2252.80;;;;;;4984498;28;20061;-75
2021/05/21 04:13:49;;;;;;;17.17;9.15;;;256.60;2252.80;;;;;;5004362;28;20057;-75
2021/05/21 04:16:14;;;;;;;10.88;8.02;;;256.70;2252.80;;;;;;5003515;28;20030;-75
2021/05/21 04:18:40;;;;;;;13.75;7.75;;;256.70;2252.80;;;;;;4996908;28;20034;-76
2021/05/21 04:21:06;;;;;;;9.45;7.20;;;256.70;2252.80;;;;;;5003048;28;20022;-77
2021/05/21 04:23:32;;;;;;;8.73;7.68;;;256.70;2252.80;;;;;;5001903;28;20072;-74
2021/05/21 04:25:59;;;;;;;11.30;7.65;;;256.90;2252.80;;;;;;5002257;28;20141;-78
2021/05/21 04:28:24;;;;;;;9.23;7.28;;;281.60;2278.40;;;;;;4996942;28;20499;-77
2021/05/21 04:30:53;;;;;;;10.68;7.65;;;281.60;2278.40;;;;;;4977781;28;20042;-75
2021/05/21 04:33:19;;;;;;;11.13;7.53;;;256.80;2252.80;;;;;;4980405;28;20054;-77
2021/05/21 04:35:45;;;;;;;9.07;7.22;;;256.90;2252.80;;;;;;4994878;28;20090;-76
2021/05/21 04:38:11;;;;;;;13.18;7.45;;;256.90;2252.80;;;;;;4993111;28;20399;-75
2021/05/21 04:40:36;;;;;;;9.55;7.15;;;281.60;2278.40;;;;;;4993497;28;20030;-74
2021/05/21 04:43:03;;;;;;;9.00;7.35;;;281.60;2278.40;;;;;;4993260;28;20142;-75
2021/05/21 04:45:29;;;;;;;12.77;7.93;;;281.70;2278.40;;;;;;4977316;28;20424;-75
2021/05/21 04:47:55;;;;;;;10.73;6.22;;;281.80;2278.40;;;;;;4995188;28;20136;-75
2021/05/21 04:50:21;;;;;;;50.38;39.10;;;281.90;2278.40;;;;;;4992732;28;20062;-73
2021/05/21 04:52:48;;;;;;;11.13;9.05;;;281.90;2278.40;;;;;;4988811;28;20030;-71
2021/05/21 04:55:14;;;;;;;10.73;9.63;;;282.00;2278.40;;;;;;5007705;28;20096;-75
2021/05/21 04:57:40;;;;;;;16.85;15.25;;;282.10;2278.40;;;;;;4991758;28;20026;-75
2021/05/21 05:00:07;;;;;;;7.82;6.22;;;282.20;2278.40;;;;;;4995324;28;20076;-76
2021/05/21 05:02:33;;;;;;;6.55;5.80;;;282.30;2278.40;;;;;;4996188;28;20144;-75
2021/05/21 05:04:58;;;;;;;11.70;7.00;;;282.40;2278.40;;;;;;4991572;28;20487;-75
2021/05/21 05:07:24;;;;;;;8.82;6.55;;;307.20;2304.00;;;;;;4994082;28;20034;-75
2021/05/21 05:09:50;;;;;;;9.65;6.80;;;307.40;2304.00;;;;;;4995291;28;20473;-75
2021/05/21 05:12:16;;;;;;;8.80;6.20;;;;;;;;;;4992405;28;20069;-75
2021/05/21 05:14:42;;;;;;;11.70;5.70;;;;;;;;;;4992594;28;20045;-74
2021/05/21 05:17:08;;;;;;;9.00;5.57;;;;;;;;;;4995394;28;20048;-75
2021/05/21 05:19:34;;;;;;;10.80;5.93;;;;;;;;;;4997433;28;20035;-74
2021/05/21 05:22:00;;;;;;;8.65;6.30;;;;;;;;;;5002708;28;20112;-75
2021/05/21 05:24:28;;;;;;;11.88;5.07;;;;;;;;;;4995375;28;20037;-77
2021/05/21 05:26:54;;;;;;;12.50;6.80;;;;;;;;;;4997693;28;20038;-78
2021/05/21 05:29:20;;;;;;;10.50;6.97;;;;;;;;;;4990596;28;20036;-76
2021/05/21 05:31:46;;;;;;;5.03;4.15;;;;;;;;;;4973788;28;20137;-75
2021/05/21 05:34:13;;;;;;;9.63;4.50;;;;;;;;;;4993762;28;20022;-73
2021/05/21 05:36:40;;;;;;;8.68;4.93;;;;;;;;;;4992914;28;20022;-74
2021/05/21 05:39:09;;;;;;;14.38;5.72;;;;;;;;;;4998247;28;20030;-78
2021/05/21 05:41:58;;;;;;;9.85;6.75;;;;;;;;;;4990935;28;20034;-78
2021/05/21 05:44:30;;;;;;;9.25;6.10;;;;;;;;;;4921766;29;20028;-77
2021/05/21 05:46:56;;;;;;;9.13;5.25;;;;;;;;;;4916218;29;20053;-77
2021/05/21 05:49:23;;;;;;;10.10;4.55;;;;;;;;;;4906881;29;20045;-75
2021/05/21 05:51:49;;;;;;;12.10;4.15;;;;;;;;;;4910775;29;20024;-74
2021/05/21 05:54:15;;;;;;;6.40;4.15;;;;;;;;;;4924433;29;20032;-75
2021/05/21 05:56:41;;;;;;;11.68;6.03;;;;;;;;;;4905005;29;20475;-78
2021/05/21 05:59:07;;;;;;;11.13;5.40;;;;;;;;;;4908716;29;20036;-77
2021/05/21 06:01:34;;;;;;;12.82;6.28;;;;;;;;;;4911212;29;20122;-76
2021/05/21 06:04:02;;;;;;;10.55;5.40;;;;;;;;;;4908482;29;20036;-76
2021/05/21 06:06:29;;;;;;;12.38;4.82;;;;;;;;;;4902527;29;20092;-76
2021/05/21 06:08:56;;;;;;;11.00;4.95;;;;;;;;;;4896232;29;20050;-75
2021/05/21 06:11:23;;;;;;;12.63;5.43;;;;;;;;;;4895753;29;20193;-75
2021/05/21 06:13:52;;;;;;;11.95;6.32;;;;;;;;;;4893417;29;20045;-73
2021/05/21 06:16:18;;;;;;;9.93;4.53;;;;;;;;;;4878617;29;20032;-71
2021/05/21 06:18:46;;;;;;;13.02;4.95;;;;;;;;;;4893756;29;20091;-71
2021/05/21 06:21:12;;;;;;;7.40;4.30;;;;;;;;;;4945706;28;20041;-77
2021/05/21 06:23:39;;;;;;;9.30;4.45;;;;;;;;;;5010974;28;20002;-78
2021/05/21 06:28:37;;;;;;;6.40;3.92;;;;;;;;;;5018383;28;20045;-74
2021/05/21 06:31:03;;;;;;;6.82;4.20;;;;;;;;;;5015520;28;20025;-75
2021/05/21 06:33:29;;;;;;;24.58;11.82;;;;;;;;;;5022295;28;20026;-75
2021/05/21 06:36:11;;;;;;;11.57;6.53;;;;;;;;;;5018727;28;20026;-76
2021/05/21 06:39:16;;;;;;;11.20;6.80;;;;;;;;;;4932996;29;20042;-73
2021/05/21 06:41:42;;;;;;;14.55;6.22;;;;;;;;;;4931001;29;20040;-78
2021/05/21 06:44:08;;;;;;;10.73;4.60;;;;;;;;;;4914065;29;20451;-78
2021/05/21 06:46:34;;;;;;;12.77;4.15;;;;;;;;;;4918453;29;20071;-80
2021/05/21 06:49:01;;;;;;;11.63;5.53;;;;;;;;;;4920561;29;20028;-79
2021/05/21 06:51:27;;;;;;;10.45;3.90;;;;;;;;;;4900062;29;20111;-84
2021/05/21 06:53:53;;;;;;;6.60;4.68;;;;;;;;;;4917809;29;20071;-74
2021/05/21 06:56:19;;;;;;;7.13;4.78;;;;;;;;;;4913842;29;20119;-74
2021/05/21 06:58:45;;;;;;;8.48;4.60;;;;;;;;;;4914125;29;20028;-74
2021/05/21 07:01:12;;;;;;;10.15;4.28;;;;;;;;;;4895472;29;20415;-74
2021/05/21 07:03:39;;;;;;;5.07;4.13;;;;;;;;;;4909126;29;20036;-75
2021/05/21 07:06:05;;;;;;;7.53;3.63;;;;;;;;;;4911358;29;20067;-75
2021/05/21 07:08:31;;;;;;;7.32;3.92;;;;;;;;;;4915143;29;20063;-75
2021/05/21 07:10:58;;;;;;;11.93;5.10;;;;;;;;;;4908004;29;20028;-74
2021/05/21 07:13:26;;;;;;;8.65;4.43;;;;;;;;;;4971271;28;20069;-74
2021/05/21 07:15:53;;;;;;;7.40;4.72;;;;;;;;;;4988414;28;20022;-74
2021/05/21 07:18:19;;;;;;;7.75;5.22;;;;;;;;;;4989363;28;20023;-74
2021/05/21 07:20:46;;;;;;;10.55;6.88;;;;;;;;;;4991584;28;20033;-75
2021/05/21 07:23:15;;;;;;;10.52;6.70;;;;;;;;;;4995251;28;20036;-74
2021/05/21 07:25:42;;;;;;;10.23;4.63;;;;;;;;;;4995226;28;20038;-75
2021/05/21 07:28:08;;;;;;;6.78;4.20;;;;;;;;;;4972343;28;20093;-78
2021/05/21 07:30:34;;;;;;;6.88;4.15;;;;;;;;;;4994909;28;20054;-81
2021/05/21 07:33:00;;;;;;;7.30;4.47;;;;;;;;;;4990815;28;20018;-86
2021/05/21 07:35:30;;;;;;;5.45;4.68;;;;;;;;;;4965827;28;20070;-86
2021/05/21 07:37:56;;;;;;;5.53;4.05;;;;;;;;;;4973788;28;20061;-79
2021/05/21 07:40:24;;;;;;;5.85;3.95;;;;;;;;;;4992254;28;20087;-73
2021/05/21 07:42:50;;;;;;;6.85;4.10;;;;;;;;;;4988062;28;20026;-84
2021/05/21 07:45:16;;;;;;;5.63;3.83;;;;;;;;;;4981650;28;20089;-82
2021/05/21 07:47:42;;;;;;;7.30;4.45;;;;;;;;;;4990478;28;20045;-77
2021/05/21 07:50:09;;;;;;;6.38;4.45;;;;;;;;;;4990493;28;20432;-84
2021/05/21 07:52:35;;;;;;;9.30;4.50;;;;;;;;;;4995025;28;20084;-83
2021/05/21 07:55:05;;;;;;;7.60;4.32;;;;;;;;;;4991093;28;20030;-76
2021/05/21 07:57:32;;;;;;;5.40;4.50;;;;;;;;;;4992714;28;20026;-74
2021/05/21 07:59:58;;;;;;;8.18;5.15;;;;;;;;;;4992345;28;20022;-76
2021/05/21 08:02:24;;;;;;;5.88;4.38;;;;;;;;;;4991444;28;20034;-78
2021/05/21 08:04:50;;;;;;;7.13;4.30;;;;;;;;;;4984477;28;20093;-72
2021/05/21 08:07:17;;;;;;;8.05;4.57;;;;;;;;;;4988639;28;20116;-75
2021/05/21 08:09:48;;;;;;;8.00;4.47;;;;;;;;;;4990536;28;20038;-76
2021/05/21 08:12:15;;;;;;;8.25;4.32;;;;;;;;;;4989303;28;20725;-74
2021/05/21 08:14:41;;;;;;;7.50;4.10;;;;;;;;;;4987920;28;20037;-74
2021/05/21 08:17:09;;;;;;;6.97;4.20;;;;;;;;;;4986013;28;20469;-76
2021/05/21 08:19:35;;;;;;;7.10;4.40;;;;;;;;;;4988699;28;20030;-75
2021/05/21 08:22:01;;;;;;;6.15;4.50;;;;;;;;;;4986076;28;20026;-77
2021/05/21 08:24:27;;;;;;;7.03;4.05;;;;;;;;;;4969020;28;20125;-86
2021/05/21 08:26:56;;;;;;;27.33;5.55;;;;;;;;;;4970108;28;20403;-76
2021/05/21 08:29:22;;;;;;;10.98;5.30;;;;;;;;;;4989417;28;20015;-76
2021/05/21 08:31:48;;;;;;;8.95;4.63;;;;;;;;;;4989512;28;20030;-77
2021/05/21 08:34:14;;;;;;;14.82;4.72;;;;;;;;;;4986291;28;20472;-83
2021/05/21 08:36:40;;;;;;;6.82;4.40;;;;;;;;;;4989882;28;20026;-76
2021/05/21 08:39:06;;;;;;;11.27;4.13;;;;;;;;;;5001275;28;20030;-75
2021/05/21 08:41:36;;;;;;;8.27;4.55;;;;;;;;;;4997969;28;20033;-75
2021/05/21 08:44:03;;;;;;;8.18;3.88;;;;;;;;;;4998239;28;20476;-75
2021/05/21 08:46:32;;;;;;;6.57;4.00;;;;;;;;;;5000133;28;20121;-76
2021/05/21 08:49:01;;;;;;;10.27;4.88;;;;;;;;;;4999614;28;20052;-76
2021/05/21 08:51:29;;;;;;;8.95;4.40;;;;;;;;;;4993507;28;20428;-78
2021/05/21 08:53:56;;;;;;;9.95;4.43;;;;;;;;;;4993119;28;20132;-74
2021/05/21 08:56:22;;;;;;;9.23;4.50;;;;;;;;;;5000567;28;20487;-74
2021/05/21 08:58:48;;;;;;;8.82;4.85;;;;;;;;;;4994366;28;20022;-76
2021/05/21 09:01:15;;;;;;;10.20;4.43;;;;;;;;;;4974152;28;20054;-74
2021/05/21 09:03:41;;;;;;;5.15;4.45;;;;;;;;;;4998557;28;20084;-74
2021/05/21 09:06:28;;;;;;;8.00;4.22;;;;;;;;;;4996420;28;20018;-75
2021/05/21 09:08:54;;;;;;;7.40;5.18;;;;;;;;;;4985097;28;20050;-75
2021/05/21 09:11:24;;;;;;;17.27;4.88;;;;;;;;;;4999245;28;20030;-75
2021/05/21 09:13:51;;;;;;;7.00;4.32;;;;;;;;;;5000185;28;20022;-75
2021/05/21 09:16:19;;;;;;;5.72;3.95;;;;;;;;;;5001813;28;20037;-77
2021/05/21 09:19:06;;;;;;;7.10;4.30;;;;;;;;;;4997777;28;20018;-74
2021/05/21 09:21:51;;;;;;;7.43;3.85;;;;;;;;;;4995705;28;20581;-75
2021/05/21 09:24:18;;;;;;;9.57;4.32;;;;;;;;;;4992659;28;20038;-74
2021/05/21 09:26:45;;;;;;;6.20;3.72;;;;;;;;;;4994269;28;20070;-74
2021/05/21 09:29:13;;;;;;;9.13;4.30;;;;;;;;;;4994616;28;20084;-74
2021/05/21 09:31:42;;;;;;;6.03;3.95;;;;;;;;;;4995604;28;20388;-73
2021/05/21 09:34:09;;;;;;;6.80;3.80;;;;;;;;;;4999364;28;20045;-73
2021/05/21 09:36:36;;;;;;;9.07;3.90;;;;;;;;;;4995115;28;20026;-73
2021/05/21 09:39:05;;;;;;;11.85;3.88;;;;;;;;;;4993577;28;20114;-76
2021/05/21 09:41:31;;;;;;;5.18;3.05;;;;;;;;;;4995908;28;20062;-74
2021/05/21 09:44:01;;;;;;;4.68;3.10;;;;;;;;;;4999207;28;20106;-74
2021/05/21 09:46:37;;;;;;;7.32;3.60;;;;;;;;;;4978993;28;20030;-74
2021/05/21 09:49:23;;;;;;;7.28;3.58;;;;;;;;;;4997754;28;20048;-76
2021/05/21 09:51:57;;;;;;;7.60;3.63;;;;;;;;;;4997730;28;20369;-75
2021/05/21 09:54:29;;;;;;;6.70;3.50;;;;;;;;;;4993579;28;20155;-76
2021/05/21 09:57:09;;;;;;;8.57;3.13;;;;;;;;;;4991965;28;20149;-73
2021/05/21 09:59:42;;;;;;;5.15;2.95;;;;;;;;;;4978488;28;20580;-77
2021/05/21 10:02:21;;;;;;;8.07;3.60;;;;;;;;;;4976172;28;20089;-75
2021/05/21 10:04:48;;;;;;;6.85;3.30;;;;;;;;;;4995692;28;20026;-76
2021/05/21 10:07:14;;;;;;;8.88;3.53;;;;;;;;;;4996796;28;20511;-75
2021/05/21 10:09:41;;;;;;;10.52;3.85;;;;;;;;;;4995193;28;20539;-74
2021/05/21 10:12:07;;;;;;;4.82;3.22;;;;;;;;;;4999513;28;20030;-73
2021/05/21 10:14:34;;;;;;;5.43;3.20;;;;;;;;;;4993674;28;20050;-71
2021/05/21 10:17:01;;;;;;;3.97;3.05;;;;;;;;;;4989433;28;20030;-74
2021/05/21 10:19:29;;;;;;;5.20;3.10;;;;;;;;;;4993754;28;20101;-74
2021/05/21 10:21:56;;;;;;;13.02;3.53;;;;;;;;;;4996123;28;20377;-73
2021/05/21 10:24:23;;;;;;;6.80;2.80;;;;;;;;;;4992175;28;20034;-74
2021/05/21 10:26:51;;;;;;;4.15;2.85;;;;;;;;;;4995753;28;20444;-74
2021/05/21 10:29:28;;;;;;;5.00;2.80;;;;;;;;;;4992264;28;20548;-74
2021/05/21 10:32:03;;;;;;;7.72;2.78;;;;;;;;;;4992236;28;20081;-75
2021/05/21 10:34:40;;;;;;;6.18;2.65;;;;;;;;;;4991433;28;20104;-75
2021/05/21 10:37:19;;;;;;;4.75;2.20;;;;;;;;;;4983693;28;20030;-75
2021/05/21 10:40:01;;;;;;;3.75;2.13;;;;;;;;;;4992488;28;20018;-74
2021/05/21 10:42:28;;;;;;;5.70;2.30;;;;;;;;;;4991626;28;20066;-73
2021/05/21 10:44:55;;;;;;;6.15;2.70;;;;;;;;;;4991321;28;20157;-73
2021/05/21 10:47:21;;;;;;;3.55;2.20;;;;;;;;;;4991869;28;20026;-73
2021/05/21 10:49:50;;;;;;;3.75;2.30;;;;;;;;;;4992112;28;20109;-74
2021/05/21 10:52:16;;;;;;;5.03;2.38;;;;;;;;;;4981079;28;20033;-74
2021/05/21 10:54:46;;;;;;;3.05;2.08;;;;;;;;;;4992247;28;20049;-75
2021/05/21 10:57:19;;;;;;;6.25;2.80;;;;;;;;;;4987308;28;20041;-74
2021/05/21 10:59:54;;;;;;;4.72;2.17;;;;;;;;;;4992987;28;20022;-73
2021/05/21 11:02:25;;;;;;;3.50;2.25;;;;;;;;;;4995800;28;20169;-75
2021/05/21 11:04:52;;;;;;;8.27;2.38;;;;;;;;;;4975468;28;20058;-74
2021/05/21 11:07:44;;;;;;;3.97;2.00;;;;;;;;;;4992570;28;20041;-74
2021/05/21 11:10:47;;;;;;;4.82;2.30;;;;;;;;;;4907120;29;20398;-74
2021/05/21 11:13:15;;;;;;;2.45;1.85;;;;;;;;;;4855935;29;20077;-75
2021/05/21 11:15:44;;;;;;;3.03;2.08;;;;;;;;;;4853984;29;20395;-75
2021/05/21 11:18:16;;;;;;;3.83;2.10;;;;;;;;;;4857667;29;20025;-77
2021/05/21 11:21:04;;;;;;;6.65;2.40;;;;;;;;;;4855057;29;20078;-78
2021/05/21 11:23:41;;;;;;;6.72;2.50;;;;;;;;;;4858702;29;20033;-76
2021/05/21 11:26:19;;;;;;;5.00;2.40;;;;;;;;;;4858374;29;20054;-76
2021/05/21 11:28:47;;;;;;;3.75;2.40;;;;;;;;;;4855000;29;20061;-74
2021/05/21 11:31:18;;;;;;;2.90;1.95;;;;;;;;;;4852833;29;20038;-77
2021/05/21 11:33:47;;;;;;;2.55;1.80;;;;;;;;;;4857451;29;20120;-75
2021/05/21 11:36:14;;;;;;;5.15;2.17;;;;;;;;;;4853260;29;20029;-77
2021/05/21 11:38:40;;;;;;;2.20;1.85;;;;;;;;;;4860352;29;20060;-79
2021/05/21 11:41:07;;;;;;;5.72;2.10;;;;;;;;;;4840051;29;20044;-79
2021/05/21 11:43:33;;;;;;;4.90;2.20;;;;;;;;;;4861852;29;20483;-79
2021/05/21 11:46:00;;;;;;;4.93;2.00;;;;;;;;;;4858118;29;20109;-78
2021/05/21 11:48:32;;;;;;;2.83;1.90;;;;;;;;;;4977731;28;20045;-75
2021/05/21 11:50:59;;;;;;;4.55;1.90;;;;;;;;;;4976856;28;20031;-77
2021/05/21 11:53:25;;;;;;;2.50;1.90;;;;;;;;;;4972469;28;20045;-78
2021/05/21 11:55:51;;;;;;;2.92;1.90;;;;;;;;;;4980046;28;20042;-79
2021/05/21 11:58:25;;;;;;;2.95;2.10;;;;;;;;;;4981808;28;20030;-78
2021/05/21 12:00:52;;;;;;;4.32;1.85;;;;;;;;;;4979928;28;20461;-77
2021/05/21 12:03:18;;;;;;;3.67;1.88;;;;;;;;;;4983878;28;20033;-79
2021/05/21 12:05:45;;;;;;;2.85;1.80;;;;;;;;;;4983274;28;20499;-75
2021/05/21 12:08:14;;;;;;;1.90;1.70;;;;;;;;;;4973498;28;20043;-84
2021/05/21 12:10:41;;;;;;;3.65;1.60;;;;;;;;;;4982997;28;20030;-80
2021/05/21 12:13:10;;;;;;;2.42;1.65;;;;;;;;;;4982388;28;20051;-79
2021/05/21 12:15:37;;;;;;;3.58;2.25;;;;;;;;;;4981715;28;20023;-78
2021/05/21 12:18:05;;;;;;;2.67;1.80;;;;;;;;;;4982867;28;20058;-81
2021/05/21 12:20:31;;;;;;;2.20;2.00;;;;;;;;;;4980435;28;20027;-80
2021/05/21 12:23:00;;;;;;;4.03;1.85;;;;;;;;;;4981563;28;20027;-81
2021/05/21 12:25:28;;;;;;;1.92;1.58;;;;;;;;;;4984626;28;20054;-79
2021/05/21 12:27:54;;;;;;;2.50;1.60;;;;;;;;;;4993660;28;20046;-78
2021/05/21 12:33:24;;;;;;;3.90;1.80;;;;;;;;;;5051291;23;20581;-78
2021/05/21 12:35:53;;;;;;;2.78;1.77;;;;;;;;;;4977210;28;20480;-77
2021/05/21 12:38:23;;;;;;;2.55;1.70;;;;;;;;;;4994841;28;20034;-80
2021/05/21 12:40:53;;;;;;;9.32;2.50;;;;;;;;;;4982270;28;20396;-86
2021/05/21 12:43:19;;;;;;;3.83;1.90;;;;;;;;;;5003901;28;20023;-74
2021/05/21 12:46:01;;;;;;;3.88;1.98;;;;;;;;;;5001156;28;20027;-77
2021/05/21 12:48:31;;;;;;;8.25;2.20;;;;;;;;;;4996667;28;20039;-78
2021/05/21 12:50:57;;;;;;;2.80;1.63;;;;;;;;;;4999671;28;20030;-77
2021/05/21 12:53:28;;;;;;;4.25;2.10;;;;;;;;;;4998908;28;20026;-76
2021/05/21 12:55:54;;;;;;;7.65;2.50;;;;;;;;;;4977971;28;20457;-76
2021/05/21 12:58:22;;;;;;;3.05;1.90;;;;;;;;;;4980338;28;20034;-80
2021/05/21 13:01:13;;;;;;;3.17;1.70;;;;;;;;;;4978854;28;20037;-83
2021/05/21 13:03:58;;;;;;;4.78;1.90;;;;;;;;;;5017091;28;20030;-79
2021/05/21 13:06:52;;;;;;;3.25;2.05;;;;;;;;;;4994472;28;20062;-83
2021/05/21 13:09:20;;;;;;;4.38;2.10;;;;;;;;;;4978704;28;20077;-76
2021/05/21 13:12:03;;;;;;;3.30;2.00;;;;;;;;;;4994107;28;20027;-76
2021/05/21 13:14:30;;;;;;;3.88;2.00;;;;;;;;;;4985725;28;20105;-76
2021/05/21 13:16:59;;;;;;;2.50;1.90;;;;;;;;;;4976389;28;20440;-75
2021/05/21 13:19:25;;;;;;;3.00;1.80;;;;;;;;;;4985714;28;20508;-75
2021/05/21 13:21:53;;;;;;;5.03;1.83;;;;;;;;;;4997919;28;20029;-75
2021/05/21 13:24:23;;;;;;;5.28;2.28;;;;;;;;;;4991250;28;20030;-77
2021/05/21 13:26:54;;;;;;;1.98;1.80;;;;;;;;;;4986937;28;20030;-78
2021/05/21 13:32:24;;;;;;;3.75;2.00;;;;;;;;;;5004662;28;20559;-75
2021/05/21 13:34:51;;;;;;;6.13;2.60;;;;;;;;;;4995436;28;20061;-74
2021/05/21 13:37:17;;;;;;;4.85;2.47;;;;;;;;;;4996821;28;20038;-80
2021/05/21 13:39:43;;;;;;;3.58;2.03;;;;;;;;;;4998665;28;20080;-78
2021/05/21 13:42:09;;;;;;;2.38;2.17;;;;;;;;;;4994163;28;20117;-80
2021/05/21 13:44:35;;;;;;;3.65;1.73;;;;;;;;;;4992301;28;20038;-79
2021/05/21 13:47:01;;;;;;;4.97;1.98;;;;;;;;;;4993280;28;20034;-78
2021/05/21 13:49:31;;;;;;;8.02;2.35;;;;;;;;;;4994695;28;20031;-78
2021/05/21 13:51:58;;;;;;;4.03;1.75;;;;;;;;;;4993135;28;20121;-76